Kwinana Medina Research, Western Australia

11:42 AM AWST on January 26, 2015 (GMT +0800)
Housing Estate | Change Station
CLOSE
Current Station
Personal Weather Station
Location: Hillman, WESTERN AUSTRALIA
Elevation: 23 ft
Nearby Weather Stations

Elev 23 ft 32.28 °S, 115.76 °E | Updated 8 seconds ago

Clear
Clear
88.7 °F
Feels Like 88 °F
N
2.3
Wind Variable Wind from East
Gusts 2.4 mph

Today
High -- | Low -- °F
--% Chance of Precip.
Yesterday
High -- | Low -- °F
Precip. -- in
5:35 AM 7:22 PM
Waxing Crescent, 38% visible
Pressure 29.86 in
Visibility -9999.0 miles
Clouds
Heat Index 88 °F
Dew Point 59 °F
Humidity 37%
Rainfall 0.00 in
Snow Depth Not available.
UV Not available.
Pollen Not available.
Air Quality Not available.
Flu Activity Not available.
METAR YPPH 260330Z 08014KT CAVOK 29/08 Q1011

More Conditions Fewer Conditions

Pressure 29.86 in
Visibility -9999.0 miles
Clouds
Heat Index 88 °F
Dew Point 59 °F
Humidity 37%
Rainfall 0.00 in
Snow Depth Not available.
UV Not available.
Pollen Not available.
Air Quality Not available.
Flu Activity Not available.
METAR YPPH 260330Z 08014KT CAVOK 29/08 Q1011

More Conditions Fewer Conditions

10-Day Weather Forecast

Almanac

Astronomy

Jan. 26, 2015 Rise Set
Actual Time
Civil Twilight
Nautical Twilight
Astronomical Twilight
Moon
Length of Visible Light
Length of Day
Tomorrow will be .
, % of the Moon is Illuminated

Today's Extremes

Country Highs Country Lows

Community

WunderPhotos

Upload Photos

1,790,106 photos uploaded!

WunderBlogs® & News

Nearby

Air Quality

  Air Quality AQ Index Pollutant
Not available.

Snow Depth

Station Depth Elevation

Earthquake Activity

City Distance Mag. Time & Date
Minimum magnitude displayed is 2.5.

Coastal Water Temperatures

Place Temperature

Nearby Weather Stations